Time;durP1;ratioP1;P1;durP2;ratioP2;P2;SDS_P1;SDS_P2;PMS_P1;PMS_P2;Temp;Humidity;BMP_temperature;BMP_pressure;BME280_temperature;BME280_humidity;BME280_pressure;Samples;Min_cycle;Max_cycle;Signal;HPM_P1;HPM_P2
2022/06/25 00:00:20;;;;;;;;;;;;;;;;;;1050489;28;3549;-45
2022/06/25 00:01:07;;;;;;;;;;;;;;;;;;1053866;28;1709;-46
2022/06/25 00:01:37;;;;;;;;;;;;;;;;;;1053004;28;4492;-47
2022/06/25 00:02:07;;;;;;;;;;;;;;;;;;1048453;28;2324;-45
2022/06/25 00:02:38;;;;;;;;;;;;;;;;;;1046716;28;3690;-46
2022/06/25 00:03:08;;;;;;;;;;;;;;;;;;1044218;28;3834;-49
2022/06/25 00:03:39;;;;;;;;;;;;;;;;;;1044244;28;2451;-48
2022/06/25 00:05:27;;;;;;;;;;;;;;;;;;1046798;28;3036;-47
2022/06/25 00:05:48;;;;;;;;;;;;;;;;;;1052400;28;3844;-46
2022/06/25 00:06:19;;;;;;;;;;;;;;;;;;1051746;28;3734;-45
2022/06/25 00:06:49;;;;;;;;;;;;;;;;;;1053513;28;3705;-48
2022/06/25 00:07:20;;;;;;;;;;;;;;;;;;1053432;28;3414;-49
2022/06/25 00:07:57;;;;;;;;;;;;;;;;;;1052427;28;3638;-47
2022/06/25 00:08:35;;;;;;;;;;;;;;;;;;1051228;28;3802;-46
2022/06/25 00:09:12;;;;;;;;;;;;;;;;;;1052365;28;1734;-47
2022/06/25 00:09:44;;;;;;;;;;;;;;;;;;1047546;28;2765;-46
2022/06/25 00:10:14;;;;;;;;;;;;;;;;;;1047089;28;3974;-48
2022/06/25 00:10:44;;;;;;;;;;;;;;;;;;1042223;28;4084;-50
2022/06/25 00:12:54;;;;;;;;;;;;;;;;;;1049441;28;2293;-48
2022/06/25 00:13:24;;;;;;;;;;;;;;;;;;1049234;28;2251;-45
2022/06/25 00:13:55;;;;;;;;;;;;;;;;;;1052303;28;1589;-46
2022/06/25 00:14:25;;;;;;;;;;;;;;;;;;1053189;28;1623;-49
2022/06/25 00:14:56;;;;;;;;;;;;;;;;;;1048306;28;3674;-46
2022/06/25 00:15:26;;;;;;;;;;;;;;;;;;1047715;28;2774;-47
2022/06/25 00:15:57;;;;;;;;;;;;;;;;;;1047996;28;2854;-46
2022/06/25 00:16:27;;;;;;;;;;;;;;;;;;1049179;28;2130;-48
2022/06/25 00:16:57;;;;;;;;;;;;;;;;;;1054333;28;1629;-50
2022/06/25 00:17:27;;;;;;;;;;;;;;;;;;1052650;28;2703;-46
2022/06/25 00:17:58;;;;;;;;;;;;;;;;;;1052352;28;4784;-49
2022/06/25 00:18:28;;;;;;;;;;;;;;;;;;1052897;28;3268;-49
2022/06/25 00:18:58;;;;;;;;;;;;;;;;;;1052655;28;4371;-49
2022/06/25 00:19:29;;;;;;;;;;;;;;;;;;1052993;28;3087;-49
2022/06/25 00:19:59;;;;;;;;;;;;;;;;;;1053740;28;2151;-50
2022/06/25 00:20:29;;;;;;;;;;;;;;;;;;1054567;28;1709;-47
2022/06/25 00:21:00;;;;;;;;;;;;;;;;;;1048914;28;1958;-46
2022/06/25 00:21:31;;;;;;;;;;;;;;;;;;1048643;28;3275;-48
2022/06/25 00:22:01;;;;;;;;;;;;;;;;;;1045420;28;3327;-45
2022/06/25 00:22:32;;;;;;;;;;;;;;;;;;1045377;28;3052;-49
2022/06/25 00:23:02;;;;;;;;;;;;;;;;;;1049001;28;2869;-48
2022/06/25 00:23:32;;;;;;;;;;;;;;;;;;1048975;28;2807;-51
2022/06/25 00:24:03;;;;;;;;;;;;;;;;;;1053082;28;2784;-46
2022/06/25 00:24:33;;;;;;;;;;;;;;;;;;1052908;28;3122;-46
2022/06/25 00:25:04;;;;;;;;;;;;;;;;;;1052147;28;3276;-47
2022/06/25 00:25:34;;;;;;;;;;;;;;;;;;1053263;28;3692;-47
2022/06/25 00:26:04;;;;;;;;;;;;;;;;;;1051133;28;3953;-46
2022/06/25 00:26:35;;;;;;;;;;;;;;;;;;1053773;28;3115;-45
2022/06/25 00:27:05;;;;;;;;;;;;;;;;;;1053698;28;1947;-45
2022/06/25 00:27:35;;;;;;;;;;;;;;;;;;1053129;28;3665;-48
2022/06/25 00:28:06;;;;;;;;;;;;;;;;;;1053752;28;1777;-45
2022/06/25 00:28:37;;;;;;;;;;;;;;;;;;1044539;28;2682;-49
2022/06/25 00:29:07;;;;;;;;;;;;;;;;;;1042831;28;4480;-50
2022/06/25 00:29:37;;;;;;;;;;;;;;;;;;1044649;28;2889;-47
2022/06/25 00:30:08;;;;;;;;;;;;;;;;;;1043358;28;3870;-48
2022/06/25 00:30:38;;;;;;;;;;;;;;;;;;1053727;28;3819;-45
2022/06/25 00:31:09;;;;;;;;;;;;;;;;;;1052409;28;3703;-46
2022/06/25 00:31:39;;;;;;;;;;;;;;;;;;1054437;28;3172;-47
2022/06/25 00:32:09;;;;;;;;;;;;;;;;;;1052533;28;2622;-49
2022/06/25 00:32:39;;;;;;;;;;;;;;;;;;1048313;28;2568;-47
2022/06/25 00:33:10;;;;;;;;;;;;;;;;;;1048690;28;2024;-48
2022/06/25 00:33:40;;;;;;;;;;;;;;;;;;1049987;28;1742;-47
2022/06/25 00:34:10;;;;;;;;;;;;;;;;;;1048357;28;3217;-48
2022/06/25 00:34:41;;;;;;;;;;;;;;;;;;1053372;28;3268;-46
2022/06/25 00:35:11;;;;;;;;;;;;;;;;;;1053803;28;3459;-48
2022/06/25 00:35:41;;;;;;;;;;;;;;;;;;1048880;28;2675;-48
2022/06/25 00:36:12;;;;;;;;;;;;;;;;;;1047211;28;2016;-48
2022/06/25 00:36:42;;;;;;;;;;;;;;;;;;1044986;28;3792;-44
2022/06/25 00:37:12;;;;;;;;;;;;;;;;;;1043521;28;2968;-46
2022/06/25 00:37:43;;;;;;;;;;;;;;;;;;1049397;28;3815;-46
2022/06/25 00:38:13;;;;;;;;;;;;;;;;;;1052501;28;3443;-46
2022/06/25 00:38:43;;;;;;;;;;;;;;;;;;1053092;28;3709;-47
2022/06/25 00:39:14;;;;;;;;;;;;;;;;;;1052985;28;2063;-47
2022/06/25 00:39:44;;;;;;;;;;;;;;;;;;1053148;28;3328;-47
2022/06/25 00:40:14;;;;;;;;;;;;;;;;;;1053519;28;2985;-51
2022/06/25 00:40:45;;;;;;;;;;;;;;;;;;1054488;28;1571;-47
2022/06/25 00:41:15;;;;;;;;;;;;;;;;;;1048579;28;2923;-46
2022/06/25 00:41:46;;;;;;;;;;;;;;;;;;1049844;28;1289;-48
2022/06/25 00:42:16;;;;;;;;;;;;;;;;;;1048430;28;1949;-48
2022/06/25 00:42:48;;;;;;;;;;;;;;;;;;1050052;28;1573;-47
2022/06/25 00:43:18;;;;;;;;;;;;;;;;;;1048377;28;2527;-47
2022/06/25 00:43:54;;;;;;;;;;;;;;;;;;1049272;28;4126;-45
2022/06/25 00:44:27;;;;;;;;;;;;;;;;;;1049417;28;1356;-49
2022/06/25 00:44:57;;;;;;;;;;;;;;;;;;1048785;28;2165;-46
2022/06/25 00:45:27;;;;;;;;;;;;;;;;;;1047015;28;3701;-48
2022/06/25 00:45:58;;;;;;;;;;;;;;;;;;1049826;28;1913;-46
2022/06/25 00:46:28;;;;;;;;;;;;;;;;;;1054216;28;1654;-45
2022/06/25 00:46:58;;;;;;;;;;;;;;;;;;1053623;28;2467;-50
2022/06/25 00:47:29;;;;;;;;;;;;;;;;;;1053177;28;2752;-51
2022/06/25 00:47:59;;;;;;;;;;;;;;;;;;1052662;28;3098;-47
2022/06/25 00:48:29;;;;;;;;;;;;;;;;;;1053888;28;2678;-47
2022/06/25 00:49:00;;;;;;;;;;;;;;;;;;1053489;28;3041;-47
2022/06/25 00:49:30;;;;;;;;;;;;;;;;;;1053948;28;2804;-47
2022/06/25 00:50:01;;;;;;;;;;;;;;;;;;1052204;28;4554;-46
2022/06/25 00:50:31;;;;;;;;;;;;;;;;;;1053177;28;4497;-46
2022/06/25 00:51:04;;;;;;;;;;;;;;;;;;1053292;28;3459;-46
2022/06/25 00:51:36;;;;;;;;;;;;;;;;;;1051338;28;3809;-47
2022/06/25 00:52:07;;;;;;;;;;;;;;;;;;1051915;28;3769;-48
2022/06/25 00:52:40;;;;;;;;;;;;;;;;;;1052405;28;1826;-46
2022/06/25 00:53:11;;;;;;;;;;;;;;;;;;1054425;28;1864;-50
2022/06/25 00:53:43;;;;;;;;;;;;;;;;;;1047503;28;4192;-47
2022/06/25 00:54:14;;;;;;;;;;;;;;;;;;1048514;28;3852;-45
2022/06/25 00:54:47;;;;;;;;;;;;;;;;;;1048878;28;1990;-48
2022/06/25 00:55:19;;;;;;;;;;;;;;;;;;1043869;28;2936;-49
2022/06/25 00:55:51;;;;;;;;;;;;;;;;;;1047173;28;2628;-47
2022/06/25 00:56:21;;;;;;;;;;;;;;;;;;1046465;28;2738;-47
2022/06/25 00:56:52;;;;;;;;;;;;;;;;;;1048514;28;2813;-47
2022/06/25 00:57:28;;;;;;;;;;;;;;;;;;1049975;28;1755;-47
2022/06/25 00:58:00;;;;;;;;;;;;;;;;;;1048511;28;2806;-46
2022/06/25 00:58:31;;;;;;;;;;;;;;;;;;1048733;28;2661;-45
2022/06/25 00:59:02;;;;;;;;;;;;;;;;;;1048888;28;3664;-47
2022/06/25 00:59:39;;;;;;;;;;;;;;;;;;1054289;28;2465;-50
2022/06/25 01:00:11;;;;;;;;;;;;;;;;;;1051768;28;3623;-49
2022/06/25 01:00:42;;;;;;;;;;;;;;;;;;1052950;28;3001;-46
2022/06/25 01:01:12;;;;;;;;;;;;;;;;;;1049555;28;1313;-46
2022/06/25 01:01:43;;;;;;;;;;;;;;;;;;1047232;28;3760;-46
2022/06/25 01:02:13;;;;;;;;;;;;;;;;;;1047910;28;3073;-46
2022/06/25 01:02:44;;;;;;;;;;;;;;;;;;1048913;28;1833;-49
2022/06/25 01:03:14;;;;;;;;;;;;;;;;;;1054284;28;1652;-46
2022/06/25 01:03:45;;;;;;;;;;;;;;;;;;1052759;28;2406;-45
2022/06/25 01:04:15;;;;;;;;;;;;;;;;;;1054100;28;1571;-47
2022/06/25 01:04:45;;;;;;;;;;;;;;;;;;1048635;28;3231;-49
2022/06/25 01:05:16;;;;;;;;;;;;;;;;;;1049492;28;3749;-47
2022/06/25 01:05:46;;;;;;;;;;;;;;;;;;1045600;28;3532;-49
2022/06/25 01:06:17;;;;;;;;;;;;;;;;;;1047469;28;3656;-45
2022/06/25 01:06:48;;;;;;;;;;;;;;;;;;1049022;28;1938;-48
2022/06/25 01:07:18;;;;;;;;;;;;;;;;;;1045512;28;1883;-47
2022/06/25 01:07:56;;;;;;;;;;;;;;;;;;1041228;28;3791;-47
2022/06/25 01:08:34;;;;;;;;;;;;;;;;;;1041326;28;3732;-48
2022/06/25 01:09:10;;;;;;;;;;;;;;;;;;1042132;28;3286;-49
2022/06/25 01:09:41;;;;;;;;;;;;;;;;;;1045081;28;3197;-48
2022/06/25 01:10:14;;;;;;;;;;;;;;;;;;1044815;28;2726;-48
2022/06/25 01:10:44;;;;;;;;;;;;;;;;;;1045595;28;1278;-46
2022/06/25 01:11:15;;;;;;;;;;;;;;;;;;1043268;28;2956;-49
2022/06/25 01:11:45;;;;;;;;;;;;;;;;;;1045277;28;3703;-46
2022/06/25 01:12:16;;;;;;;;;;;;;;;;;;1043441;28;4406;-47
2022/06/25 01:12:46;;;;;;;;;;;;;;;;;;1046061;28;1509;-46
2022/06/25 01:13:21;;;;;;;;;;;;;;;;;;1044020;28;2159;-49
2022/06/25 01:13:52;;;;;;;;;;;;;;;;;;1045051;28;2978;-45
2022/06/25 01:14:22;;;;;;;;;;;;;;;;;;1045472;28;2198;-46
2022/06/25 01:15:03;;;;;;;;;;;;;;;;;;1041374;28;2850;-49
2022/06/25 01:15:33;;;;;;;;;;;;;;;;;;1041917;28;3756;-47
2022/06/25 01:16:04;;;;;;;;;;;;;;;;;;1046672;28;1484;-47
2022/06/25 01:16:34;;;;;;;;;;;;;;;;;;1043847;28;4450;-47
2022/06/25 01:17:06;;;;;;;;;;;;;;;;;;1046552;28;1970;-47
2022/06/25 01:17:43;;;;;;;;;;;;;;;;;;1044404;28;3926;-47
2022/06/25 01:18:13;;;;;;;;;;;;;;;;;;1046050;28;3450;-47
2022/06/25 01:18:43;;;;;;;;;;;;;;;;;;1045762;28;2729;-46
2022/06/25 01:19:14;;;;;;;;;;;;;;;;;;1044038;28;3487;-45
2022/06/25 01:19:45;;;;;;;;;;;;;;;;;;1045821;28;3747;-46
2022/06/25 01:20:16;;;;;;;;;;;;;;;;;;1045086;28;1714;-48
2022/06/25 01:20:47;;;;;;;;;;;;;;;;;;1045131;28;3479;-45
2022/06/25 01:21:17;;;;;;;;;;;;;;;;;;1043974;28;3619;-50
2022/06/25 01:21:47;;;;;;;;;;;;;;;;;;1046407;28;1673;-48
2022/06/25 01:22:18;;;;;;;;;;;;;;;;;;1046028;28;1766;-46
2022/06/25 01:22:48;;;;;;;;;;;;;;;;;;1045864;28;2444;-46
2022/06/25 01:23:18;;;;;;;;;;;;;;;;;;1044792;28;2869;-45
2022/06/25 01:23:49;;;;;;;;;;;;;;;;;;1042856;28;3646;-46
2022/06/25 01:24:19;;;;;;;;;;;;;;;;;;1039443;28;3088;-47
2022/06/25 01:24:50;;;;;;;;;;;;;;;;;;1042135;28;2960;-49
2022/06/25 01:25:20;;;;;;;;;;;;;;;;;;1044776;28;3060;-50
2022/06/25 01:25:50;;;;;;;;;;;;;;;;;;1043430;28;2916;-45
2022/06/25 01:26:21;;;;;;;;;;;;;;;;;;1048095;28;2783;-47
2022/06/25 01:26:51;;;;;;;;;;;;;;;;;;1045922;28;3063;-46
2022/06/25 01:27:21;;;;;;;;;;;;;;;;;;1046719;28;1592;-47
2022/06/25 01:27:52;;;;;;;;;;;;;;;;;;1045686;28;2906;-49
2022/06/25 01:28:22;;;;;;;;;;;;;;;;;;1046122;28;3540;-47
2022/06/25 01:28:53;;;;;;;;;;;;;;;;;;1044998;28;2501;-50
2022/06/25 01:29:23;;;;;;;;;;;;;;;;;;1045087;28;2679;-51
2022/06/25 01:29:54;;;;;;;;;;;;;;;;;;1045794;28;1998;-46
2022/06/25 01:30:25;;;;;;;;;;;;;;;;;;1046271;28;2004;-46
2022/06/25 01:30:55;;;;;;;;;;;;;;;;;;1045077;28;2305;-45
2022/06/25 01:31:25;;;;;;;;;;;;;;;;;;1045070;28;3650;-51
2022/06/25 01:31:56;;;;;;;;;;;;;;;;;;1045582;28;3899;-47
2022/06/25 01:32:26;;;;;;;;;;;;;;;;;;1045020;28;3709;-45
2022/06/25 01:32:57;;;;;;;;;;;;;;;;;;1045164;28;3844;-46
2022/06/25 01:33:27;;;;;;;;;;;;;;;;;;1046791;28;1656;-46
2022/06/25 01:33:58;;;;;;;;;;;;;;;;;;1043819;28;3348;-47
2022/06/25 01:34:28;;;;;;;;;;;;;;;;;;1046212;28;2385;-48
2022/06/25 01:34:58;;;;;;;;;;;;;;;;;;1042858;28;3238;-46
2022/06/25 01:35:29;;;;;;;;;;;;;;;;;;1046678;28;1682;-49
2022/06/25 01:35:59;;;;;;;;;;;;;;;;;;1041971;28;3758;-48
2022/06/25 01:36:29;;;;;;;;;;;;;;;;;;1045768;28;4195;-47
2022/06/25 01:36:59;;;;;;;;;;;;;;;;;;1043879;28;4354;-50
2022/06/25 01:37:30;;;;;;;;;;;;;;;;;;1046616;28;1858;-49
2022/06/25 01:38:01;;;;;;;;;;;;;;;;;;1044146;28;3294;-44
2022/06/25 01:38:31;;;;;;;;;;;;;;;;;;1042296;28;2004;-46
2022/06/25 01:39:02;;;;;;;;;;;;;;;;;;1041277;28;4106;-45
2022/06/25 01:39:32;;;;;;;;;;;;;;;;;;1045228;28;3180;-48
2022/06/25 01:40:02;;;;;;;;;;;;;;;;;;1045275;28;3316;-47
2022/06/25 01:40:33;;;;;;;;;;;;;;;;;;1046924;28;1945;-49
2022/06/25 01:41:03;;;;;;;;;;;;;;;;;;1045211;28;2316;-46
2022/06/25 01:41:33;;;;;;;;;;;;;;;;;;1045532;28;3227;-50
2022/06/25 01:42:04;;;;;;;;;;;;;;;;;;1045413;28;2940;-48
2022/06/25 01:43:23;;;;;;;;;;;;;;;;;;1044810;28;3073;-48
2022/06/25 01:43:53;;;;;;;;;;;;;;;;;;1046133;28;3007;-46
2022/06/25 01:44:24;;;;;;;;;;;;;;;;;;1045774;28;2244;-47
2022/06/25 01:44:54;;;;;;;;;;;;;;;;;;1046225;28;1593;-50
2022/06/25 01:45:25;;;;;;;;;;;;;;;;;;1044187;28;3285;-47
2022/06/25 01:45:55;;;;;;;;;;;;;;;;;;1045738;28;2395;-48
2022/06/25 01:46:25;;;;;;;;;;;;;;;;;;1046188;28;1763;-45
2022/06/25 01:46:56;;;;;;;;;;;;;;;;;;1045042;28;3808;-46
2022/06/25 01:47:26;;;;;;;;;;;;;;;;;;1044788;28;4066;-47
2022/06/25 01:47:57;;;;;;;;;;;;;;;;;;1040701;28;3818;-48
2022/06/25 01:48:27;;;;;;;;;;;;;;;;;;1041477;28;2163;-49
2022/06/25 01:48:57;;;;;;;;;;;;;;;;;;1042247;28;1714;-48
2022/06/25 01:49:27;;;;;;;;;;;;;;;;;;1045001;28;2170;-45
2022/06/25 01:49:58;;;;;;;;;;;;;;;;;;1043857;28;3709;-47
2022/06/25 01:50:28;;;;;;;;;;;;;;;;;;1046007;28;3005;-47
2022/06/25 01:50:58;;;;;;;;;;;;;;;;;;1045838;28;2050;-52
2022/06/25 01:51:28;;;;;;;;;;;;;;;;;;1044782;28;3614;-47
2022/06/25 01:51:59;;;;;;;;;;;;;;;;;;1045215;28;3894;-50
2022/06/25 01:52:29;;;;;;;;;;;;;;;;;;1046329;28;1919;-48
2022/06/25 01:53:00;;;;;;;;;;;;;;;;;;1046399;28;1694;-47
2022/06/25 01:53:30;;;;;;;;;;;;;;;;;;1045143;28;2670;-46
2022/06/25 01:54:00;;;;;;;;;;;;;;;;;;1045727;28;2766;-48
2022/06/25 01:54:31;;;;;;;;;;;;;;;;;;1044273;28;2990;-46
2022/06/25 01:55:01;;;;;;;;;;;;;;;;;;1046151;28;3083;-47
2022/06/25 01:55:32;;;;;;;;;;;;;;;;;;1045527;28;2556;-49
2022/06/25 01:56:03;;;;;;;;;;;;;;;;;;1045316;28;3195;-49
2022/06/25 01:56:33;;;;;;;;;;;;;;;;;;1046112;28;3150;-49
2022/06/25 01:57:10;;;;;;;;;;;;;;;;;;1046218;28;2076;-45
2022/06/25 01:57:41;;;;;;;;;;;;;;;;;;1045612;28;2002;-47
2022/06/25 01:58:11;;;;;;;;;;;;;;;;;;1044583;28;3796;-48
2022/06/25 01:58:41;;;;;;;;;;;;;;;;;;1043859;28;3178;-48
2022/06/25 01:59:11;;;;;;;;;;;;;;;;;;1044617;28;4444;-47
2022/06/25 01:59:43;;;;;;;;;;;;;;;;;;1045581;28;3826;-47
2022/06/25 02:00:15;;;;;;;;;;;;;;;;;;1040874;28;4080;-45
2022/06/25 02:00:46;;;;;;;;;;;;;;;;;;1044825;28;2973;-48
2022/06/25 02:01:16;;;;;;;;;;;;;;;;;;1046488;28;1638;-46
2022/06/25 02:01:46;;;;;;;;;;;;;;;;;;1045462;28;3114;-46
2022/06/25 02:02:17;;;;;;;;;;;;;;;;;;1045131;28;3233;-48
2022/06/25 02:02:47;;;;;;;;;;;;;;;;;;1045644;28;1973;-45
2022/06/25 02:03:17;;;;;;;;;;;;;;;;;;1044336;28;3712;-46
2022/06/25 02:03:48;;;;;;;;;;;;;;;;;;1045081;28;2824;-46
2022/06/25 02:04:18;;;;;;;;;;;;;;;;;;1045218;28;3751;-46
2022/06/25 02:04:48;;;;;;;;;;;;;;;;;;1044516;28;3270;-48
2022/06/25 02:05:56;;;;;;;;;;;;;;;;;;1045340;28;3814;-45
2022/06/25 02:06:12;;;;;;;;;;;;;;;;;;1044846;28;2400;-47
2022/06/25 02:06:42;;;;;;;;;;;;;;;;;;1044268;28;3635;-49
2022/06/25 02:07:13;;;;;;;;;;;;;;;;;;1043950;28;3825;-48
2022/06/25 02:07:50;;;;;;;;;;;;;;;;;;1046452;28;3444;-47
2022/06/25 02:08:27;;;;;;;;;;;;;;;;;;1053021;28;3719;-51
2022/06/25 02:09:04;;;;;;;;;;;;;;;;;;1053860;28;2727;-49
2022/06/25 02:09:35;;;;;;;;;;;;;;;;;;1052903;28;4607;-46
2022/06/25 02:10:06;;;;;;;;;;;;;;;;;;1053219;28;2529;-47
2022/06/25 02:10:36;;;;;;;;;;;;;;;;;;1053356;28;3308;-48
2022/06/25 02:11:07;;;;;;;;;;;;;;;;;;1049306;28;1925;-50
2022/06/25 02:11:37;;;;;;;;;;;;;;;;;;1047677;28;3982;-47
2022/06/25 02:12:08;;;;;;;;;;;;;;;;;;1048002;28;3544;-46
2022/06/25 02:12:38;;;;;;;;;;;;;;;;;;1050320;28;2740;-45
2022/06/25 02:13:09;;;;;;;;;;;;;;;;;;1054465;28;1961;-46
2022/06/25 02:13:40;;;;;;;;;;;;;;;;;;1053551;28;2770;-49
2022/06/25 02:14:10;;;;;;;;;;;;;;;;;;1053633;28;2345;-45
2022/06/25 02:14:40;;;;;;;;;;;;;;;;;;1050131;28;1684;-48
2022/06/25 02:15:10;;;;;;;;;;;;;;;;;;1049582;28;1977;-47
2022/06/25 02:15:41;;;;;;;;;;;;;;;;;;1049994;28;1708;-47
2022/06/25 02:16:11;;;;;;;;;;;;;;;;;;1048276;28;2785;-49
2022/06/25 02:16:41;;;;;;;;;;;;;;;;;;1047534;28;3727;-47
2022/06/25 02:17:12;;;;;;;;;;;;;;;;;;1045688;28;2197;-46
2022/06/25 02:17:42;;;;;;;;;;;;;;;;;;1045920;28;2014;-46
2022/06/25 02:18:12;;;;;;;;;;;;;;;;;;1045394;28;1737;-47
2022/06/25 02:18:43;;;;;;;;;;;;;;;;;;1047887;28;2799;-48
2022/06/25 02:19:13;;;;;;;;;;;;;;;;;;1048506;28;4242;-45
2022/06/25 02:19:43;;;;;;;;;;;;;;;;;;1049952;28;1674;-46
2022/06/25 02:20:13;;;;;;;;;;;;;;;;;;1047249;28;3925;-48
2022/06/25 02:20:44;;;;;;;;;;;;;;;;;;1049609;28;3839;-47
2022/06/25 02:21:14;;;;;;;;;;;;;;;;;;1053439;28;3798;-47
2022/06/25 02:21:44;;;;;;;;;;;;;;;;;;1051091;28;3451;-49
2022/06/25 02:22:14;;;;;;;;;;;;;;;;;;1052580;28;3820;-45
2022/06/25 02:22:45;;;;;;;;;;;;;;;;;;1053938;28;2803;-51
2022/06/25 02:23:16;;;;;;;;;;;;;;;;;;1053986;28;2453;-47
2022/06/25 02:23:46;;;;;;;;;;;;;;;;;;1052860;28;3766;-48
2022/06/25 02:24:16;;;;;;;;;;;;;;;;;;1049074;28;1885;-45
2022/06/25 02:24:47;;;;;;;;;;;;;;;;;;1050186;28;2229;-48
2022/06/25 02:25:17;;;;;;;;;;;;;;;;;;1049320;28;1739;-45
2022/06/25 02:25:48;;;;;;;;;;;;;;;;;;1049309;28;2680;-51
2022/06/25 02:26:18;;;;;;;;;;;;;;;;;;1049245;28;1914;-50
2022/06/25 02:26:48;;;;;;;;;;;;;;;;;;1050369;28;1632;-49
2022/06/25 02:27:19;;;;;;;;;;;;;;;;;;1047321;28;2012;-48
2022/06/25 02:27:49;;;;;;;;;;;;;;;;;;1047013;28;3051;-49
2022/06/25 02:28:19;;;;;;;;;;;;;;;;;;1049920;28;3051;-47
2022/06/25 02:28:49;;;;;;;;;;;;;;;;;;1051376;28;3575;-51
2022/06/25 02:29:20;;;;;;;;;;;;;;;;;;1052523;28;3886;-48
2022/06/25 02:29:50;;;;;;;;;;;;;;;;;;1052856;28;4729;-46
2022/06/25 02:30:20;;;;;;;;;;;;;;;;;;1048469;28;2730;-46
2022/06/25 02:30:51;;;;;;;;;;;;;;;;;;1050389;28;1706;-49
2022/06/25 02:31:21;;;;;;;;;;;;;;;;;;1049522;28;1685;-48
2022/06/25 02:31:51;;;;;;;;;;;;;;;;;;1049225;28;3086;-46
2022/06/25 02:32:21;;;;;;;;;;;;;;;;;;1051314;28;3102;-45
2022/06/25 02:32:52;;;;;;;;;;;;;;;;;;1048351;28;2885;-48
2022/06/25 02:33:22;;;;;;;;;;;;;;;;;;1049427;28;2714;-47
2022/06/25 02:33:52;;;;;;;;;;;;;;;;;;1048383;28;2781;-48
2022/06/25 02:34:23;;;;;;;;;;;;;;;;;;1053121;28;2572;-49
2022/06/25 02:34:53;;;;;;;;;;;;;;;;;;1052658;28;2874;-47
2022/06/25 02:35:23;;;;;;;;;;;;;;;;;;1053962;28;3233;-47
2022/06/25 02:35:53;;;;;;;;;;;;;;;;;;1053263;28;2634;-47
2022/06/25 02:36:24;;;;;;;;;;;;;;;;;;1051865;28;3848;-46
2022/06/25 02:36:54;;;;;;;;;;;;;;;;;;1054001;28;3091;-48
2022/06/25 02:37:24;;;;;;;;;;;;;;;;;;1052346;28;4423;-47
2022/06/25 02:37:55;;;;;;;;;;;;;;;;;;1049907;28;4133;-51
2022/06/25 02:38:25;;;;;;;;;;;;;;;;;;1051903;28;4632;-50
2022/06/25 02:38:55;;;;;;;;;;;;;;;;;;1053916;28;3504;-51
2022/06/25 02:39:26;;;;;;;;;;;;;;;;;;1054473;28;3970;-45
2022/06/25 02:39:56;;;;;;;;;;;;;;;;;;1053363;28;2850;-46
2022/06/25 02:40:26;;;;;;;;;;;;;;;;;;1054436;28;1709;-47
2022/06/25 02:40:56;;;;;;;;;;;;;;;;;;1053800;28;3206;-46
2022/06/25 02:41:27;;;;;;;;;;;;;;;;;;1054262;28;3257;-45
2022/06/25 02:41:57;;;;;;;;;;;;;;;;;;1054022;28;3587;-46
2022/06/25 02:42:34;;;;;;;;;;;;;;;;;;1053495;28;2727;-45
2022/06/25 02:43:05;;;;;;;;;;;;;;;;;;1054210;28;1846;-47
2022/06/25 02:43:35;;;;;;;;;;;;;;;;;;1049562;28;3795;-45
2022/06/25 02:44:05;;;;;;;;;;;;;;;;;;1043526;28;3834;-48
2022/06/25 02:44:36;;;;;;;;;;;;;;;;;;1044986;28;3141;-46
2022/06/25 02:45:08;;;;;;;;;;;;;;;;;;1043773;28;3150;-46
2022/06/25 02:45:38;;;;;;;;;;;;;;;;;;1049921;28;1755;-49
2022/06/25 02:46:08;;;;;;;;;;;;;;;;;;1050588;28;3812;-45
2022/06/25 02:46:38;;;;;;;;;;;;;;;;;;1052527;28;3128;-48
2022/06/25 02:47:09;;;;;;;;;;;;;;;;;;1052871;28;1908;-47
2022/06/25 02:47:45;;;;;;;;;;;;;;;;;;1052803;28;2759;-45
2022/06/25 02:48:15;;;;;;;;;;;;;;;;;;1048609;28;3806;-47
2022/06/25 02:48:46;;;;;;;;;;;;;;;;;;1047237;28;2946;-51
2022/06/25 02:49:16;;;;;;;;;;;;;;;;;;1049462;28;2907;-47
2022/06/25 02:49:46;;;;;;;;;;;;;;;;;;1044127;28;2991;-47
2022/06/25 02:50:17;;;;;;;;;;;;;;;;;;1049727;28;1986;-48
2022/06/25 02:50:47;;;;;;;;;;;;;;;;;;1044286;28;2364;-48
2022/06/25 02:51:18;;;;;;;;;;;;;;;;;;1044848;28;3727;-46
2022/06/25 02:51:48;;;;;;;;;;;;;;;;;;1044556;28;3044;-47
2022/06/25 02:52:18;;;;;;;;;;;;;;;;;;1040428;28;1558;-46
2022/06/25 02:52:49;;;;;;;;;;;;;;;;;;1044134;28;2957;-46
2022/06/25 02:53:19;;;;;;;;;;;;;;;;;;1036745;28;2707;-49
2022/06/25 02:53:49;;;;;;;;;;;;;;;;;;1040218;28;3815;-44
2022/06/25 02:54:19;;;;;;;;;;;;;;;;;;1040589;28;3587;-50
2022/06/25 02:54:50;;;;;;;;;;;;;;;;;;1040695;28;2284;-49
2022/06/25 02:58:54;;;;;;;;;;;;;;;;;;1048533;28;3630;-49
2022/06/25 02:58:55;;;;;;;;;;;;;;;;;;1053295;28;3228;-47
2022/06/25 02:59:26;;;;;;;;;;;;;;;;;;1049716;28;1706;-49
2022/06/25 02:59:57;;;;;;;;;;;;;;;;;;1049279;28;2746;-50
2022/06/25 03:00:27;;;;;;;;;;;;;;;;;;1045517;28;3303;-47
2022/06/25 03:00:57;;;;;;;;;;;;;;;;;;1047441;28;3229;-49
2022/06/25 03:01:28;;;;;;;;;;;;;;;;;;1052126;28;1925;-48
2022/06/25 03:01:58;;;;;;;;;;;;;;;;;;1050803;28;2978;-46
2022/06/25 03:02:29;;;;;;;;;;;;;;;;;;1054205;28;1780;-49
2022/06/25 03:02:59;;;;;;;;;;;;;;;;;;1054163;28;1634;-47
2022/06/25 03:03:29;;;;;;;;;;;;;;;;;;1053261;28;3008;-47
2022/06/25 03:03:59;;;;;;;;;;;;;;;;;;1052991;28;3712;-47
2022/06/25 03:04:30;;;;;;;;;;;;;;;;;;1054360;28;3985;-49
2022/06/25 03:05:00;;;;;;;;;;;;;;;;;;1054614;28;1671;-49
2022/06/25 03:05:30;;;;;;;;;;;;;;;;;;1052551;28;3760;-47
2022/06/25 03:06:01;;;;;;;;;;;;;;;;;;1054268;28;1917;-48
2022/06/25 03:06:31;;;;;;;;;;;;;;;;;;1047756;28;3083;-46
2022/06/25 03:07:01;;;;;;;;;;;;;;;;;;1049654;28;2172;-49
2022/06/25 03:07:32;;;;;;;;;;;;;;;;;;1047703;28;3584;-46
2022/06/25 03:08:09;;;;;;;;;;;;;;;;;;1045086;28;3329;-48
2022/06/25 03:08:47;;;;;;;;;;;;;;;;;;1044117;28;4254;-49
2022/06/25 03:09:23;;;;;;;;;;;;;;;;;;1043707;28;3769;-48
2022/06/25 03:09:54;;;;;;;;;;;;;;;;;;1039780;28;1834;-46
2022/06/25 03:10:24;;;;;;;;;;;;;;;;;;1040956;28;1308;-50
2022/06/25 03:10:55;;;;;;;;;;;;;;;;;;1039768;28;1803;-49
2022/06/25 03:11:25;;;;;;;;;;;;;;;;;;1045249;28;3058;-47
2022/06/25 03:11:55;;;;;;;;;;;;;;;;;;1042658;28;3230;-46
2022/06/25 03:12:26;;;;;;;;;;;;;;;;;;1045339;28;3386;-46
2022/06/25 03:12:56;;;;;;;;;;;;;;;;;;1044782;28;2618;-47
2022/06/25 03:13:28;;;;;;;;;;;;;;;;;;1045737;28;2860;-46
2022/06/25 03:13:59;;;;;;;;;;;;;;;;;;1045519;28;1706;-48
2022/06/25 03:14:29;;;;;;;;;;;;;;;;;;1045728;28;1647;-46
2022/06/25 03:14:59;;;;;;;;;;;;;;;;;;1045233;28;1940;-46
2022/06/25 03:15:30;;;;;;;;;;;;;;;;;;1044327;28;2971;-48
2022/06/25 03:16:00;;;;;;;;;;;;;;;;;;1045360;28;1889;-46
2022/06/25 03:16:31;;;;;;;;;;;;;;;;;;1044920;28;1958;-45
2022/06/25 03:17:02;;;;;;;;;;;;;;;;;;1045184;28;2825;-46
2022/06/25 03:17:32;;;;;;;;;;;;;;;;;;1045365;28;2835;-45
2022/06/25 03:18:02;;;;;;;;;;;;;;;;;;1043364;28;3074;-46
2022/06/25 03:18:33;;;;;;;;;;;;;;;;;;1044842;28;2112;-47
2022/06/25 03:19:04;;;;;;;;;;;;;;;;;;1045432;28;1656;-49
2022/06/25 03:19:34;;;;;;;;;;;;;;;;;;1045966;28;1726;-46
2022/06/25 03:20:05;;;;;;;;;;;;;;;;;;1045091;28;2951;-47
2022/06/25 03:20:36;;;;;;;;;;;;;;;;;;1042998;28;2933;-50
2022/06/25 03:21:12;;;;;;;;;;;;;;;;;;1045569;28;1826;-49
2022/06/25 03:21:45;;;;;;;;;;;;;;;;;;1044400;28;2402;-45
2022/06/25 03:22:15;;;;;;;;;;;;;;;;;;1045417;28;1980;-47
2022/06/25 03:22:46;;;;;;;;;;;;;;;;;;1046719;28;1901;-45
2022/06/25 03:23:16;;;;;;;;;;;;;;;;;;1044943;28;1854;-48
2022/06/25 03:23:46;;;;;;;;;;;;;;;;;;1046203;28;1782;-47
2022/06/25 03:24:17;;;;;;;;;;;;;;;;;;1044278;28;3587;-48
2022/06/25 03:24:53;;;;;;;;;;;;;;;;;;1046035;28;1972;-48
2022/06/25 03:25:24;;;;;;;;;;;;;;;;;;1045202;28;3751;-47
2022/06/25 03:25:54;;;;;;;;;;;;;;;;;;1039228;28;4413;-48
2022/06/25 03:26:25;;;;;;;;;;;;;;;;;;1044853;28;3992;-45
2022/06/25 03:27:01;;;;;;;;;;;;;;;;;;1045327;28;4130;-50
2022/06/25 03:27:31;;;;;;;;;;;;;;;;;;1043465;28;3682;-46
2022/06/25 03:28:02;;;;;;;;;;;;;;;;;;1043659;28;4031;-47
2022/06/25 03:28:32;;;;;;;;;;;;;;;;;;1045015;28;3524;-46
2022/06/25 03:29:03;;;;;;;;;;;;;;;;;;1044349;28;3676;-47
2022/06/25 03:29:33;;;;;;;;;;;;;;;;;;1044726;28;3771;-51
2022/06/25 03:30:04;;;;;;;;;;;;;;;;;;1040769;28;3175;-49
2022/06/25 03:30:34;;;;;;;;;;;;;;;;;;1045451;28;3004;-50
2022/06/25 03:31:04;;;;;;;;;;;;;;;;;;1045370;28;3921;-48
2022/06/25 03:31:34;;;;;;;;;;;;;;;;;;1045560;28;1755;-46
2022/06/25 03:32:05;;;;;;;;;;;;;;;;;;1043184;28;3234;-49
2022/06/25 03:32:35;;;;;;;;;;;;;;;;;;1044614;28;2726;-47
2022/06/25 03:33:06;;;;;;;;;;;;;;;;;;1043161;28;3220;-45
2022/06/25 03:33:36;;;;;;;;;;;;;;;;;;1044610;28;3038;-48
2022/06/25 03:34:06;;;;;;;;;;;;;;;;;;1045611;28;3297;-47
2022/06/25 03:34:37;;;;;;;;;;;;;;;;;;1044942;28;3483;-45
2022/06/25 03:35:07;;;;;;;;;;;;;;;;;;1042556;28;3569;-48
2022/06/25 03:35:37;;;;;;;;;;;;;;;;;;1045021;28;3707;-51
2022/06/25 03:36:07;;;;;;;;;;;;;;;;;;1040503;28;1826;-46
2022/06/25 03:36:38;;;;;;;;;;;;;;;;;;1041621;28;1724;-47
2022/06/25 03:37:08;;;;;;;;;;;;;;;;;;1044298;28;2786;-47
2022/06/25 03:37:38;;;;;;;;;;;;;;;;;;1041461;28;3192;-48
2022/06/25 03:38:09;;;;;;;;;;;;;;;;;;1043529;28;4131;-46
2022/06/25 03:38:39;;;;;;;;;;;;;;;;;;1045491;28;4631;-50
2022/06/25 03:39:09;;;;;;;;;;;;;;;;;;1044320;28;3747;-47
2022/06/25 03:39:39;;;;;;;;;;;;;;;;;;1046147;28;1587;-48
2022/06/25 03:40:10;;;;;;;;;;;;;;;;;;1044485;28;2370;-47
2022/06/25 03:40:40;;;;;;;;;;;;;;;;;;1046240;28;1733;-46
2022/06/25 03:41:59;;;;;;;;;;;;;;;;;;1044782;28;2815;-46
2022/06/25 03:42:30;;;;;;;;;;;;;;;;;;1045688;28;3302;-47